createdAt,value
2019-05-30T00:00:36.520Z,19.90
2019-05-30T00:03:04.432Z,19.88
2019-05-30T00:05:32.284Z,19.85
2019-05-30T00:08:00.314Z,19.84
2019-05-30T00:10:28.237Z,19.82
2019-05-30T00:12:56.693Z,19.80
2019-05-30T00:15:24.604Z,19.78
2019-05-30T00:17:52.568Z,19.78
2019-05-30T00:20:20.338Z,19.77
2019-05-30T00:22:48.051Z,19.75
2019-05-30T00:25:15.632Z,19.72
2019-05-30T00:27:43.237Z,19.72
2019-05-30T00:30:24.031Z,19.73
2019-05-30T00:32:40.757Z,19.70
2019-05-30T00:35:08.633Z,19.67
2019-05-30T00:37:36.470Z,19.66
2019-05-30T00:40:06.065Z,19.64
2019-05-30T00:42:33.904Z,19.62
2019-05-30T00:45:09.247Z,19.65
2019-05-30T00:47:31.829Z,19.63
2019-05-30T00:50:00.210Z,19.60
2019-05-30T00:52:27.995Z,19.60
2019-05-30T00:54:56.427Z,19.58
2019-05-30T00:57:24.193Z,19.56
2019-05-30T00:59:52.021Z,19.53
2019-05-30T01:02:19.583Z,19.52
2019-05-30T01:04:47.224Z,19.51
2019-05-30T01:07:15.035Z,19.51
2019-05-30T01:09:42.693Z,19.49
2019-05-30T01:12:10.467Z,19.48
2019-05-30T01:14:38.335Z,19.48
2019-05-30T01:17:07.258Z,19.48
2019-05-30T01:19:35.146Z,19.46
2019-05-30T01:22:03.478Z,19.45
2019-05-30T01:24:31.353Z,19.44
2019-05-30T01:26:59.237Z,19.42
2019-05-30T01:29:27.101Z,19.40
2019-05-30T01:31:54.804Z,19.41
2019-05-30T01:34:22.532Z,19.40
2019-05-30T01:36:53.324Z,19.40
2019-05-30T01:39:21.124Z,19.41
2019-05-30T01:41:49.024Z,19.41
2019-05-30T01:44:16.788Z,19.40
2019-05-30T01:46:44.457Z,19.37
2019-05-30T01:49:12.124Z,19.37
2019-05-30T01:51:39.687Z,19.36
2019-05-30T01:54:08.672Z,19.35
2019-05-30T01:56:36.734Z,19.33
2019-05-30T01:59:04.833Z,19.33
2019-05-30T02:01:32.646Z,19.35
2019-05-30T02:04:01.071Z,19.33
2019-05-30T02:06:29.070Z,19.33
2019-05-30T02:08:56.911Z,19.32
2019-05-30T02:11:24.708Z,19.33
2019-05-30T02:13:52.482Z,19.35
2019-05-30T02:16:20.284Z,19.35
2019-05-30T02:18:48.198Z,19.35
2019-05-30T02:21:16.093Z,19.35
2019-05-30T02:23:44.093Z,19.33
2019-05-30T02:26:12.044Z,19.33
2019-05-30T02:28:39.711Z,19.32
2019-05-30T02:31:09.382Z,19.33
2019-05-30T02:33:37.146Z,19.34
2019-05-30T02:36:06.268Z,19.34
2019-05-30T02:38:34.576Z,19.35
2019-05-30T02:41:03.366Z,19.35
2019-05-30T02:43:31.598Z,19.36
2019-05-30T02:46:00.830Z,19.35
2019-05-30T02:48:28.940Z,19.34
2019-05-30T02:50:56.912Z,19.34
2019-05-30T02:53:24.708Z,19.35
2019-05-30T02:55:52.448Z,19.35
2019-05-30T02:58:20.328Z,19.36
2019-05-30T03:00:48.084Z,19.36
2019-05-30T03:03:15.726Z,19.36
2019-05-30T03:05:43.568Z,19.36
2019-05-30T03:08:14.119Z,19.37
2019-05-30T03:10:41.003Z,19.35
2019-05-30T03:13:10.652Z,19.35
2019-05-30T03:15:38.404Z,19.36
2019-05-30T03:18:08.063Z,19.36
2019-05-30T03:20:35.937Z,19.36
2019-05-30T03:23:05.801Z,19.38
2019-05-30T03:25:33.255Z,19.39
2019-05-30T03:28:02.589Z,19.37
2019-05-30T03:30:30.489Z,19.38
2019-05-30T03:33:06.645Z,19.37
2019-05-30T03:35:31.307Z,19.37
2019-05-30T03:37:57.830Z,19.40
2019-05-30T03:40:27.643Z,19.39
2019-05-30T03:42:55.151Z,19.39
2019-05-30T03:45:23.086Z,19.39
2019-05-30T03:47:52.298Z,19.39
2019-05-30T03:50:19.961Z,19.40
2019-05-30T03:52:47.923Z,19.39
2019-05-30T03:55:16.713Z,19.39
2019-05-30T03:57:48.878Z,19.41
2019-05-30T04:00:34.988Z,19.41
2019-05-30T04:03:19.203Z,19.43
2019-05-30T04:05:50.783Z,19.43
2019-05-30T04:08:19.716Z,19.44
2019-05-30T04:10:48.269Z,19.44
2019-05-30T04:13:43.519Z,19.42
2019-05-30T04:16:13.355Z,19.42
2019-05-30T04:18:41.148Z,19.42
2019-05-30T04:21:10.836Z,19.42
2019-05-30T04:23:38.738Z,19.45
2019-05-30T04:26:07.468Z,19.45
2019-05-30T04:28:35.404Z,19.45
2019-05-30T04:31:03.173Z,19.44
2019-05-30T04:33:33.443Z,19.42
2019-05-30T04:36:00.659Z,19.43
2019-05-30T04:38:28.324Z,19.44
2019-05-30T04:40:56.136Z,19.44
2019-05-30T04:43:26.067Z,19.45
2019-05-30T04:45:53.917Z,19.45
2019-05-30T04:48:21.619Z,19.46
2019-05-30T04:50:49.315Z,19.47
2019-05-30T04:53:18.537Z,19.47
2019-05-30T04:55:46.743Z,19.47
2019-05-30T04:58:15.435Z,19.47
2019-05-30T05:00:44.397Z,19.49
2019-05-30T05:03:13.043Z,19.49
2019-05-30T05:05:40.915Z,19.48
2019-05-30T05:08:08.569Z,19.49
2019-05-30T05:10:36.390Z,19.49
2019-05-30T05:13:04.158Z,19.50
2019-05-30T05:15:32.235Z,19.49
2019-05-30T05:17:59.975Z,19.49
2019-05-30T05:23:08.750Z,19.51
2019-05-30T05:25:36.598Z,19.50
2019-05-30T05:28:04.390Z,19.51
2019-05-30T05:30:32.157Z,19.53
2019-05-30T05:32:59.824Z,19.52
2019-05-30T05:35:27.592Z,19.52
2019-05-30T05:37:55.437Z,19.53
2019-05-30T05:40:24.336Z,19.54
2019-05-30T05:42:52.344Z,19.55
2019-05-30T05:45:20.547Z,19.55
2019-05-30T05:47:48.346Z,19.57
2019-05-30T05:50:16.720Z,19.56
2019-05-30T05:52:44.645Z,19.58
2019-05-30T05:58:26.159Z,19.62
2019-05-30T06:00:53.828Z,19.66
2019-05-30T06:03:22.269Z,19.65
2019-05-30T06:05:53.447Z,19.67
2019-05-30T06:08:19.578Z,19.68
2019-05-30T06:10:47.096Z,19.69
2019-05-30T06:13:14.575Z,19.70
2019-05-30T06:18:24.244Z,19.74
2019-05-30T06:20:51.861Z,19.77
2019-05-30T06:23:19.533Z,19.76
2019-05-30T06:25:47.154Z,19.77
2019-05-30T06:28:14.641Z,19.78
2019-05-30T06:30:42.148Z,19.78
2019-05-30T06:33:09.673Z,19.79
2019-05-30T06:35:37.290Z,19.79
2019-05-30T06:38:04.918Z,19.82
2019-05-30T06:40:32.454Z,19.83
2019-05-30T06:43:00.090Z,19.84
2019-05-30T06:45:28.377Z,19.86
2019-05-30T06:47:55.989Z,19.88
2019-05-30T06:50:24.628Z,19.89
2019-05-30T06:52:52.211Z,19.90
2019-05-30T06:55:20.999Z,19.93
2019-05-30T06:57:49.021Z,19.93
2019-05-30T07:00:16.890Z,19.95
2019-05-30T07:02:44.745Z,19.98
2019-05-30T07:05:13.201Z,20.00
2019-05-30T07:07:41.642Z,20.00
2019-05-30T07:10:09.682Z,20.00
2019-05-30T07:12:37.440Z,20.00
2019-05-30T07:15:05.930Z,19.99
2019-05-30T07:17:33.717Z,20.00
2019-05-30T07:20:01.551Z,19.99
2019-05-30T07:22:29.701Z,20.00
2019-05-30T07:24:57.600Z,20.03
2019-05-30T07:27:26.070Z,20.03
2019-05-30T07:29:54.151Z,20.04
2019-05-30T07:32:22.086Z,20.03
2019-05-30T07:35:05.216Z,20.02
2019-05-30T07:37:19.697Z,20.03
2019-05-30T07:39:47.459Z,20.04
2019-05-30T07:42:15.222Z,20.04
2019-05-30T07:44:43.093Z,20.04
2019-05-30T07:47:10.951Z,20.05
2019-05-30T07:49:38.849Z,20.03
2019-05-30T07:52:06.656Z,20.03
2019-05-30T07:54:35.159Z,20.04
2019-05-30T07:57:03.135Z,20.04
2019-05-30T07:59:30.900Z,20.05
2019-05-30T08:01:58.721Z,20.05
2019-05-30T08:04:27.429Z,20.04
2019-05-30T08:06:55.429Z,20.03
2019-05-30T08:09:23.488Z,20.02
2019-05-30T08:11:51.457Z,20.02
2019-05-30T08:14:19.300Z,20.02
2019-05-30T08:16:46.899Z,20.03
2019-05-30T08:19:14.746Z,20.01
2019-05-30T08:21:42.612Z,20.02
2019-05-30T08:24:10.496Z,20.02
2019-05-30T08:26:38.473Z,20.01
2019-05-30T08:29:06.505Z,20.02
2019-05-30T08:31:34.605Z,20.02
2019-05-30T08:34:02.459Z,20.02
2019-05-30T08:36:30.837Z,20.03
2019-05-30T08:38:58.908Z,20.04
2019-05-30T08:41:26.732Z,20.04
2019-05-30T08:43:54.584Z,20.04
2019-05-30T08:46:22.401Z,20.06
2019-05-30T08:48:50.066Z,20.07
2019-05-30T08:51:18.033Z,20.08
2019-05-30T08:53:45.848Z,20.06
2019-05-30T08:56:13.732Z,20.06
2019-05-30T08:58:41.461Z,20.04
2019-05-30T09:01:09.190Z,20.04
2019-05-30T09:03:38.415Z,20.03
2019-05-30T09:06:06.437Z,20.02
2019-05-30T09:08:34.325Z,20.03
2019-05-30T09:11:02.088Z,20.03
2019-05-30T09:13:29.997Z,20.03
2019-05-30T09:15:58.027Z,20.05
2019-05-30T09:18:25.789Z,20.08
2019-05-30T09:20:53.763Z,20.08
2019-05-30T09:23:21.589Z,20.12
2019-05-30T09:25:49.492Z,20.13
2019-05-30T09:28:17.359Z,20.14
2019-05-30T09:30:46.398Z,20.12
2019-05-30T09:33:14.313Z,20.10
2019-05-30T09:35:42.982Z,20.12
2019-05-30T09:38:10.867Z,20.12
2019-05-30T09:40:39.341Z,20.15
2019-05-30T09:43:08.208Z,20.16
2019-05-30T09:45:36.110Z,20.16
2019-05-30T09:48:03.971Z,20.16
2019-05-30T09:50:31.733Z,20.17
2019-05-30T09:52:59.618Z,20.20
2019-05-30T09:55:27.504Z,20.26
2019-05-30T09:57:55.439Z,20.26
2019-05-30T10:00:25.044Z,20.31
2019-05-30T10:02:52.885Z,20.35
2019-05-30T10:05:24.152Z,20.35
2019-05-30T10:07:50.803Z,20.36
2019-05-30T10:10:19.244Z,20.35
2019-05-30T10:12:48.393Z,20.34
2019-05-30T10:15:16.505Z,20.34
2019-05-30T10:17:44.694Z,20.35
2019-05-30T10:20:13.582Z,20.37
2019-05-30T10:22:41.416Z,20.38
2019-05-30T10:25:09.352Z,20.39
2019-05-30T10:27:37.267Z,20.39
2019-05-30T10:30:07.231Z,20.39
2019-05-30T10:32:35.263Z,20.39
2019-05-30T10:35:03.037Z,20.39
2019-05-30T10:37:30.922Z,20.41
2019-05-30T10:39:59.209Z,20.41
2019-05-30T10:42:27.106Z,20.42
2019-05-30T10:44:56.346Z,20.47
2019-05-30T10:47:24.435Z,20.49
2019-05-30T10:49:53.481Z,20.50
2019-05-30T10:52:21.704Z,20.51
2019-05-30T10:54:53.534Z,20.52
2019-05-30T10:57:21.326Z,20.53
2019-05-30T10:59:50.826Z,20.51
2019-05-30T11:02:18.668Z,20.51
2019-05-30T11:04:47.769Z,20.52
2019-05-30T11:07:27.955Z,20.50
2019-05-30T11:10:03.901Z,20.49
2019-05-30T11:12:31.951Z,20.50
2019-05-30T11:14:59.666Z,20.49
2019-05-30T11:17:27.530Z,20.50
2019-05-30T11:19:56.143Z,20.49
2019-05-30T11:22:24.191Z,20.49
2019-05-30T11:24:52.711Z,20.50
2019-05-30T11:27:20.604Z,20.48
2019-05-30T11:29:48.681Z,20.48
2019-05-30T11:32:16.479Z,20.47
2019-05-30T11:34:44.207Z,20.47
2019-05-30T11:39:41.884Z,20.49
2019-05-30T11:42:09.646Z,20.50
2019-05-30T11:44:37.603Z,20.48
2019-05-30T11:47:05.448Z,20.50
2019-05-30T11:49:33.213Z,20.50
2019-05-30T11:52:00.842Z,20.50
2019-05-30T11:54:28.661Z,20.51
2019-05-30T11:56:56.432Z,20.54
2019-05-30T11:59:24.300Z,20.52
2019-05-30T12:01:53.103Z,20.52
2019-05-30T12:04:21.980Z,20.48
2019-05-30T12:06:51.186Z,20.50
2019-05-30T12:09:19.351Z,20.50
2019-05-30T12:11:46.912Z,20.54
2019-05-30T12:14:14.770Z,20.55
2019-05-30T12:16:42.611Z,20.55
2019-05-30T12:19:10.460Z,20.54
2019-05-30T12:21:38.272Z,20.52
2019-05-30T12:24:06.033Z,20.54
2019-05-30T12:26:34.265Z,20.54
2019-05-30T12:29:02.392Z,20.53
2019-05-30T12:31:30.347Z,20.58
2019-05-30T12:33:58.423Z,20.60
2019-05-30T12:36:26.397Z,20.60
2019-05-30T12:38:54.373Z,20.61
2019-05-30T12:41:22.324Z,20.59
2019-05-30T12:43:50.170Z,20.60
2019-05-30T12:46:17.888Z,20.60
2019-05-30T12:48:45.722Z,20.62
2019-05-30T12:51:13.379Z,20.61
2019-05-30T12:53:41.656Z,20.58
2019-05-30T12:56:09.569Z,20.59
2019-05-30T12:58:37.287Z,20.60
2019-05-30T13:01:05.155Z,20.59
2019-05-30T13:03:32.923Z,20.60
2019-05-30T13:06:01.167Z,20.61
2019-05-30T13:08:29.059Z,20.63
2019-05-30T13:10:57.366Z,20.64
2019-05-30T13:13:25.275Z,20.63
2019-05-30T13:15:54.482Z,20.64
2019-05-30T13:18:22.568Z,20.66
2019-05-30T13:20:50.404Z,20.67
2019-05-30T13:23:18.353Z,20.68
2019-05-30T13:25:45.967Z,20.70
2019-05-30T13:28:13.569Z,20.68
2019-05-30T13:30:41.387Z,20.68
2019-05-30T13:33:09.358Z,20.69
2019-05-30T13:35:37.224Z,20.67
2019-05-30T13:38:05.854Z,20.68
2019-05-30T13:40:33.676Z,20.67
2019-05-30T13:43:01.967Z,20.68
2019-05-30T13:45:29.712Z,20.68
2019-05-30T13:47:58.302Z,20.68
2019-05-30T13:50:26.218Z,20.68
2019-05-30T13:52:53.962Z,20.68
2019-05-30T13:55:21.796Z,20.69
2019-05-30T13:57:49.657Z,20.70
2019-05-30T14:00:17.598Z,20.72
2019-05-30T14:02:45.389Z,20.73
2019-05-30T14:05:13.276Z,20.71
2019-05-30T14:07:41.022Z,20.71
2019-05-30T14:10:08.871Z,20.71
2019-05-30T14:12:36.726Z,20.72
2019-05-30T14:15:09.108Z,20.71
2019-05-30T14:17:35.452Z,20.71
2019-05-30T14:20:22.927Z,20.69
2019-05-30T14:22:51.069Z,20.66
2019-05-30T14:25:18.885Z,20.67
2019-05-30T14:27:46.614Z,20.66
2019-05-30T14:30:14.449Z,20.66
2019-05-30T14:32:42.146Z,20.66
2019-05-30T14:35:11.682Z,20.65
2019-05-30T14:37:39.737Z,20.65
2019-05-30T14:40:08.775Z,20.65
2019-05-30T14:42:36.791Z,20.64
2019-05-30T14:45:06.438Z,20.65
2019-05-30T14:47:34.331Z,20.65
2019-05-30T14:50:02.487Z,20.66
2019-05-30T14:52:30.301Z,20.65
2019-05-30T14:54:58.174Z,20.66
2019-05-30T14:57:25.897Z,20.66
2019-05-30T14:59:53.635Z,20.66
2019-05-30T15:02:21.420Z,20.68
2019-05-30T15:04:49.081Z,20.70
2019-05-30T15:07:16.814Z,20.69
2019-05-30T15:09:44.758Z,20.69
2019-05-30T15:12:12.745Z,20.70
2019-05-30T15:14:40.599Z,20.73
2019-05-30T15:17:08.305Z,20.75
2019-05-30T15:19:35.821Z,20.77
2019-05-30T15:22:03.407Z,20.80
2019-05-30T15:24:31.132Z,20.79
2019-05-30T15:26:58.953Z,20.79
2019-05-30T15:29:26.464Z,20.80
2019-05-30T15:31:53.950Z,20.82
2019-05-30T15:34:21.470Z,20.81
2019-05-30T15:36:48.971Z,20.81
2019-05-30T15:39:30.675Z,20.81
2019-05-30T15:41:45.866Z,20.80
2019-05-30T15:44:13.630Z,20.81
2019-05-30T15:46:41.192Z,20.81
2019-05-30T15:49:08.695Z,20.83
2019-05-30T15:51:36.167Z,20.83
2019-05-30T15:54:03.706Z,20.84
2019-05-30T15:56:31.532Z,20.84
2019-05-30T15:58:59.121Z,20.85
2019-05-30T16:01:26.588Z,20.87
2019-05-30T16:03:54.059Z,20.86
2019-05-30T16:06:21.603Z,20.83
2019-05-30T16:08:49.087Z,20.81
2019-05-30T16:11:17.005Z,20.80
2019-05-30T16:13:44.611Z,20.80
2019-05-30T16:16:13.562Z,20.78
2019-05-30T16:18:41.174Z,20.78
2019-05-30T16:21:08.684Z,20.77
2019-05-30T16:23:36.151Z,20.77
2019-05-30T16:26:03.645Z,20.75
2019-05-30T16:28:31.115Z,20.73
2019-05-30T16:30:58.641Z,20.73
2019-05-30T16:33:30.736Z,20.72
2019-05-30T16:35:58.457Z,20.71
2019-05-30T16:38:26.469Z,20.71
2019-05-30T16:40:54.327Z,20.70
2019-05-30T16:43:22.449Z,20.69
2019-05-30T16:45:50.320Z,20.68
2019-05-30T16:48:18.381Z,20.69
2019-05-30T16:50:46.298Z,20.67
2019-05-30T16:53:14.924Z,20.65
2019-05-30T16:55:42.853Z,20.65
2019-05-30T16:58:10.821Z,20.63
2019-05-30T17:00:38.686Z,20.64
2019-05-30T17:03:06.451Z,20.61
2019-05-30T17:05:34.648Z,20.61
2019-05-30T17:08:03.608Z,20.60
2019-05-30T17:10:33.200Z,20.58
2019-05-30T17:13:02.324Z,20.58
2019-05-30T17:15:30.188Z,20.56
2019-05-30T17:17:58.037Z,20.54
2019-05-30T17:20:26.581Z,20.54
2019-05-30T17:22:54.501Z,20.54
2019-05-30T17:25:23.132Z,20.52
2019-05-30T17:27:50.950Z,20.52
2019-05-30T17:30:19.676Z,20.50
2019-05-30T17:32:47.706Z,20.50
2019-05-30T17:35:15.615Z,20.49
2019-05-30T17:37:43.375Z,20.48
2019-05-30T17:43:12.368Z,20.45
2019-05-30T17:45:39.630Z,20.45
2019-05-30T17:48:16.059Z,20.43
2019-05-30T17:50:36.359Z,20.42
2019-05-30T17:53:03.614Z,20.39
2019-05-30T17:55:30.867Z,20.39
2019-05-30T17:57:58.090Z,20.38
2019-05-30T18:00:26.453Z,20.36
2019-05-30T18:02:53.773Z,20.36
2019-05-30T18:05:22.359Z,20.34
2019-05-30T18:07:49.758Z,20.34
2019-05-30T18:10:18.496Z,20.33
2019-05-30T18:12:45.758Z,20.31
2019-05-30T18:15:13.002Z,20.31
2019-05-30T18:17:40.297Z,20.29
2019-05-30T18:20:07.637Z,20.29
2019-05-30T18:22:34.857Z,20.29
2019-05-30T18:25:02.141Z,20.27
2019-05-30T18:27:29.955Z,20.15
2019-05-30T18:29:57.244Z,20.27
2019-05-30T18:32:24.457Z,20.25
2019-05-30T18:34:51.751Z,20.26
2019-05-30T18:37:18.995Z,20.25
2019-05-30T18:39:46.226Z,20.24
2019-05-30T18:42:13.519Z,20.23
2019-05-30T18:44:40.817Z,20.23
2019-05-30T18:47:08.156Z,20.22
2019-05-30T18:49:35.406Z,20.19
2019-05-30T18:52:02.649Z,20.19
2019-05-30T18:54:30.631Z,20.21
2019-05-30T18:56:58.057Z,20.20
2019-05-30T18:59:25.283Z,20.19
2019-05-30T19:01:52.553Z,20.19
2019-05-30T19:04:22.773Z,20.17
2019-05-30T19:06:48.974Z,20.17
2019-05-30T19:09:16.235Z,19.98
2019-05-30T19:11:43.454Z,20.16
2019-05-30T19:14:11.102Z,20.15
2019-05-30T19:16:38.301Z,20.14
2019-05-30T19:19:05.549Z,20.13
2019-05-30T19:21:34.058Z,20.13
2019-05-30T19:24:01.484Z,20.13
2019-05-30T19:26:28.745Z,20.12
2019-05-30T19:28:55.974Z,20.11
2019-05-30T19:31:23.223Z,20.10
2019-05-30T19:33:50.463Z,20.09
2019-05-30T19:36:17.750Z,20.08
2019-05-30T19:38:45.011Z,20.08
2019-05-30T19:41:12.300Z,20.07
2019-05-30T19:43:39.594Z,20.07
2019-05-30T19:46:06.836Z,20.07
2019-05-30T19:48:34.441Z,20.06
2019-05-30T19:51:01.714Z,20.06
2019-05-30T19:53:28.994Z,20.05
2019-05-30T19:55:56.459Z,20.05
2019-05-30T19:58:23.819Z,20.04
2019-05-30T20:00:58.412Z,20.03
2019-05-30T20:03:33.583Z,20.03
2019-05-30T20:05:49.365Z,20.02
2019-05-30T20:08:16.708Z,20.01
2019-05-30T20:10:44.012Z,20.00
2019-05-30T20:13:11.258Z,19.99
2019-05-30T20:15:39.571Z,19.98
2019-05-30T20:18:06.975Z,19.96
2019-05-30T20:20:50.723Z,19.96
2019-05-30T20:23:03.360Z,19.96
2019-05-30T20:25:30.613Z,19.95
2019-05-30T20:27:57.858Z,19.94
2019-05-30T20:30:25.530Z,19.93
2019-05-30T20:32:52.772Z,19.92
2019-05-30T20:35:20.040Z,19.91
2019-05-30T20:37:47.294Z,19.90
2019-05-30T20:40:14.506Z,19.90
2019-05-30T20:42:42.959Z,19.88
2019-05-30T20:45:10.595Z,19.86
2019-05-30T20:47:39.311Z,19.87
2019-05-30T20:50:07.062Z,19.85
2019-05-30T20:52:38.244Z,19.84
2019-05-30T20:55:03.915Z,19.83
2019-05-30T20:57:31.131Z,19.83
2019-05-30T20:59:58.381Z,19.82
2019-05-30T21:02:29.181Z,19.81
2019-05-30T21:04:54.743Z,19.80
2019-05-30T21:07:22.954Z,19.79
2019-05-30T21:09:50.222Z,19.78
2019-05-30T21:12:17.442Z,19.77
2019-05-30T21:14:46.151Z,19.76
2019-05-30T21:17:13.577Z,19.76
2019-05-30T21:19:42.034Z,19.74
2019-05-30T21:22:09.338Z,19.74
2019-05-30T21:24:36.576Z,19.73
2019-05-30T21:27:03.835Z,19.73
2019-05-30T21:29:31.042Z,19.71
2019-05-30T21:31:58.299Z,19.71
2019-05-30T21:34:25.724Z,19.69
2019-05-30T21:36:53.199Z,19.69
2019-05-30T21:39:20.427Z,19.69
2019-05-30T21:41:48.536Z,19.68
2019-05-30T21:44:16.573Z,19.68
2019-05-30T21:46:44.785Z,19.66
2019-05-30T21:49:12.182Z,19.67
2019-05-30T21:51:39.410Z,19.65
2019-05-30T21:54:06.643Z,19.64
2019-05-30T21:56:33.872Z,19.65
2019-05-30T21:59:01.118Z,19.64
2019-05-30T22:01:32.492Z,19.65
2019-05-30T22:03:59.976Z,19.64
2019-05-30T22:06:27.207Z,19.64
2019-05-30T22:08:54.448Z,19.63
2019-05-30T22:11:21.699Z,19.63
2019-05-30T22:13:49.642Z,19.64
2019-05-30T22:16:17.063Z,19.63
2019-05-30T22:18:44.321Z,19.63
2019-05-30T22:21:11.644Z,19.62
2019-05-30T22:23:38.860Z,19.60
2019-05-30T22:26:06.226Z,19.62
2019-05-30T22:28:33.475Z,19.61
2019-05-30T22:31:00.699Z,19.61
2019-05-30T22:33:27.947Z,19.61
2019-05-30T22:35:55.164Z,19.61
2019-05-30T22:38:22.513Z,19.61
2019-05-30T22:40:49.981Z,19.60
2019-05-30T22:43:25.260Z,19.60
2019-05-30T22:45:46.544Z,19.61
2019-05-30T22:48:13.788Z,19.60
2019-05-30T22:50:41.009Z,19.59
2019-05-30T22:53:08.282Z,19.59
2019-05-30T22:55:35.510Z,19.57
2019-05-30T22:58:02.747Z,19.57
2019-05-30T23:00:30.018Z,19.56
2019-05-30T23:02:57.262Z,19.55
2019-05-30T23:05:24.546Z,19.55
2019-05-30T23:07:51.778Z,19.54
2019-05-30T23:10:19.021Z,19.55
2019-05-30T23:12:46.293Z,19.54
2019-05-30T23:15:13.541Z,19.53
2019-05-30T23:17:40.811Z,19.54
2019-05-30T23:20:08.079Z,19.53
2019-05-30T23:22:35.311Z,19.53
2019-05-30T23:25:02.661Z,19.52
2019-05-30T23:27:29.935Z,19.51
2019-05-30T23:29:58.028Z,19.51
2019-05-30T23:32:25.342Z,19.52
2019-05-30T23:34:52.557Z,19.52
2019-05-30T23:37:19.845Z,19.50
2019-05-30T23:39:47.129Z,19.50
2019-05-30T23:42:14.906Z,19.50
2019-05-30T23:44:42.162Z,19.49
2019-05-30T23:47:09.639Z,19.50
2019-05-30T23:49:36.903Z,19.50
2019-05-30T23:52:04.153Z,19.50
2019-05-30T23:54:31.508Z,19.50
2019-05-30T23:56:58.748Z,19.51
2019-05-30T23:59:25.996Z,19.51
